createdAt,value
2022-12-29T00:01:09.870Z,7.88
2022-12-29T00:03:37.768Z,7.85
2022-12-29T00:06:06.791Z,7.85
2022-12-29T00:08:41.117Z,7.83
2022-12-29T00:11:14.986Z,7.82
2022-12-29T00:14:01.729Z,7.81
2022-12-29T00:16:30.828Z,7.78
2022-12-29T00:19:00.382Z,7.75
2022-12-29T00:21:47.223Z,7.76
2022-12-29T00:24:27.987Z,7.75
2022-12-29T00:27:29.028Z,7.74
2022-12-29T00:30:16.006Z,7.73
2022-12-29T00:33:02.559Z,7.76
2022-12-29T00:35:46.654Z,7.80
2022-12-29T00:38:33.753Z,7.88
2022-12-29T00:41:19.942Z,7.92
2022-12-29T00:44:06.430Z,7.96
2022-12-29T00:46:37.104Z,7.99
2022-12-29T00:49:24.961Z,7.99
2022-12-29T00:51:53.594Z,8.01
2022-12-29T00:54:21.170Z,8.02
2022-12-29T00:56:51.751Z,8.04
2022-12-29T00:59:20.446Z,8.06
2022-12-29T01:01:48.921Z,8.06
2022-12-29T01:04:17.242Z,8.04
2022-12-29T01:06:46.418Z,8.03
2022-12-29T01:09:33.449Z,8.04
2022-12-29T01:12:05.826Z,8.04
2022-12-29T01:14:33.990Z,8.03
2022-12-29T01:17:01.658Z,8.04
2022-12-29T01:19:29.690Z,8.05
2022-12-29T01:21:58.847Z,8.11
2022-12-29T01:24:27.453Z,8.17
2022-12-29T01:26:55.778Z,8.23
2022-12-29T01:29:23.901Z,8.29
2022-12-29T01:31:51.919Z,8.33
2022-12-29T01:34:19.884Z,8.38
2022-12-29T01:36:47.728Z,8.41
2022-12-29T01:39:15.301Z,8.43
2022-12-29T01:41:43.847Z,8.46
2022-12-29T01:44:49.092Z,8.45
2022-12-29T01:47:24.350Z,8.42
2022-12-29T01:49:55.896Z,8.42
2022-12-29T01:52:28.030Z,8.45
2022-12-29T01:54:57.382Z,8.47
2022-12-29T01:57:30.163Z,8.46
2022-12-29T02:00:04.826Z,8.44
2022-12-29T02:02:33.618Z,8.47
2022-12-29T02:05:10.004Z,8.49
2022-12-29T02:07:38.667Z,8.51
2022-12-29T02:10:07.984Z,8.53
2022-12-29T02:12:36.110Z,8.55
2022-12-29T02:15:10.048Z,8.61
2022-12-29T02:18:28.472Z,8.66
2022-12-29T02:21:20.495Z,8.74
2022-12-29T02:24:17.275Z,8.82
2022-12-29T02:27:13.100Z,8.86
2022-12-29T02:30:06.487Z,8.88
2022-12-29T02:33:13.759Z,8.88
2022-12-29T02:35:58.091Z,8.88
2022-12-29T02:38:47.869Z,8.87
2022-12-29T02:41:24.112Z,8.88
2022-12-29T02:43:58.299Z,8.88
2022-12-29T02:46:47.703Z,8.89
2022-12-29T02:49:27.360Z,8.91
2022-12-29T02:52:03.569Z,8.91
2022-12-29T02:54:44.388Z,8.92
2022-12-29T02:57:21.225Z,8.92
2022-12-29T03:00:01.927Z,8.94
2022-12-29T03:02:47.770Z,8.94
2022-12-29T03:05:27.485Z,8.94
2022-12-29T03:08:15.363Z,8.93
2022-12-29T03:11:04.669Z,8.94
2022-12-29T03:14:03.501Z,8.96
2022-12-29T03:16:55.559Z,8.98
2022-12-29T03:19:31.922Z,9.00
2022-12-29T03:22:28.692Z,9.02
2022-12-29T03:25:06.039Z,9.08
2022-12-29T03:27:37.622Z,9.14
2022-12-29T03:30:07.523Z,9.19
2022-12-29T03:32:47.469Z,9.21
2022-12-29T03:35:18.365Z,9.23
2022-12-29T03:37:54.130Z,9.24
2022-12-29T03:40:23.686Z,9.26
2022-12-29T03:42:52.656Z,9.27
2022-12-29T03:45:22.053Z,9.30
2022-12-29T03:47:51.215Z,9.31
2022-12-29T03:50:19.518Z,9.32
2022-12-29T03:52:47.207Z,9.31
2022-12-29T03:55:15.214Z,9.28
2022-12-29T03:57:42.866Z,9.27
2022-12-29T04:00:11.630Z,9.24
2022-12-29T04:02:39.575Z,9.22
2022-12-29T04:05:07.676Z,9.22
2022-12-29T04:07:35.489Z,9.23
2022-12-29T04:10:04.171Z,9.28
2022-12-29T04:12:32.099Z,9.34
2022-12-29T04:14:59.786Z,9.39
2022-12-29T04:17:27.557Z,9.44
2022-12-29T04:20:15.275Z,9.48
2022-12-29T04:22:43.212Z,9.52
2022-12-29T04:25:11.587Z,9.52
2022-12-29T04:27:39.556Z,9.51
2022-12-29T04:30:08.869Z,9.50
2022-12-29T04:32:37.477Z,9.49
2022-12-29T04:35:06.236Z,9.47
2022-12-29T04:37:34.408Z,9.46
2022-12-29T04:40:02.172Z,9.46
2022-12-29T04:42:30.574Z,9.49
2022-12-29T04:44:58.993Z,9.53
2022-12-29T04:47:29.606Z,9.55
2022-12-29T04:49:58.367Z,9.57
2022-12-29T04:52:26.762Z,9.58
2022-12-29T04:54:58.249Z,9.58
2022-12-29T04:57:26.722Z,9.58
2022-12-29T04:59:54.353Z,9.57
2022-12-29T05:02:23.702Z,9.57
2022-12-29T05:04:52.125Z,9.58
2022-12-29T05:07:21.698Z,9.59
2022-12-29T05:09:49.660Z,9.60
2022-12-29T05:12:17.911Z,9.60
2022-12-29T05:14:45.640Z,9.59
2022-12-29T05:17:14.606Z,9.61
2022-12-29T05:19:43.221Z,9.64
2022-12-29T05:22:11.031Z,9.63
2022-12-29T05:24:39.996Z,9.64
2022-12-29T05:27:07.977Z,9.65
2022-12-29T05:29:35.947Z,9.69
2022-12-29T05:32:03.730Z,9.68
2022-12-29T05:34:31.321Z,9.67
2022-12-29T05:37:01.197Z,9.66
2022-12-29T05:39:30.189Z,9.64
2022-12-29T05:41:58.163Z,9.63
2022-12-29T05:44:26.911Z,9.64
2022-12-29T05:46:55.127Z,9.63
2022-12-29T05:49:22.773Z,9.61
2022-12-29T05:51:50.722Z,9.58
2022-12-29T05:54:18.803Z,9.60
2022-12-29T05:56:46.886Z,9.62
2022-12-29T05:59:14.752Z,9.62
2022-12-29T06:01:42.677Z,9.63
2022-12-29T06:04:11.564Z,9.65
2022-12-29T06:06:40.872Z,9.64
2022-12-29T06:09:12.173Z,9.66
2022-12-29T06:11:40.389Z,9.66
2022-12-29T06:14:08.317Z,9.65
2022-12-29T06:16:37.335Z,9.64
2022-12-29T06:19:05.835Z,9.63
2022-12-29T06:21:33.978Z,9.59
2022-12-29T06:24:01.720Z,9.58
2022-12-29T06:26:29.631Z,9.58
2022-12-29T06:28:57.523Z,9.59
2022-12-29T06:31:25.381Z,9.58
2022-12-29T06:33:53.181Z,9.57
2022-12-29T06:36:21.386Z,9.55
2022-12-29T06:38:49.092Z,9.55
2022-12-29T06:41:17.796Z,9.54
2022-12-29T06:43:46.631Z,9.57
2022-12-29T06:46:14.241Z,9.59
2022-12-29T06:48:43.263Z,9.62
2022-12-29T06:51:11.396Z,9.66
2022-12-29T06:53:39.289Z,9.69
2022-12-29T06:56:07.939Z,9.72
2022-12-29T06:58:35.914Z,9.72
2022-12-29T07:01:03.722Z,9.73
2022-12-29T07:03:31.459Z,9.74
2022-12-29T07:05:59.786Z,9.76
2022-12-29T07:08:27.878Z,9.77
2022-12-29T07:10:56.273Z,9.77
2022-12-29T07:13:24.182Z,9.77
2022-12-29T07:15:52.086Z,9.77
2022-12-29T07:18:20.073Z,9.77
2022-12-29T07:20:47.886Z,9.79
2022-12-29T07:23:15.565Z,9.78
2022-12-29T07:25:44.036Z,9.77
2022-12-29T07:28:12.250Z,9.74
2022-12-29T07:30:40.826Z,9.71
2022-12-29T07:33:08.993Z,9.70
2022-12-29T07:35:36.824Z,9.68
2022-12-29T07:38:04.810Z,9.67
2022-12-29T07:40:32.625Z,9.66
2022-12-29T07:43:00.722Z,9.67
2022-12-29T07:45:28.394Z,9.68
2022-12-29T07:47:56.620Z,9.69
2022-12-29T07:50:24.245Z,9.71
2022-12-29T07:52:52.546Z,9.77
2022-12-29T07:55:20.553Z,9.82
2022-12-29T07:57:48.473Z,9.86
2022-12-29T08:00:17.091Z,9.90
2022-12-29T08:02:45.341Z,9.93
2022-12-29T08:05:13.433Z,9.95
2022-12-29T08:07:41.183Z,9.93
2022-12-29T08:10:09.347Z,9.93
2022-12-29T08:12:39.821Z,9.96
2022-12-29T08:15:10.090Z,9.94
2022-12-29T08:17:38.671Z,9.93
2022-12-29T08:20:07.764Z,9.89
2022-12-29T08:22:36.033Z,9.87
2022-12-29T08:25:04.693Z,9.84
2022-12-29T08:27:32.868Z,9.84
2022-12-29T08:30:01.481Z,9.82
2022-12-29T08:32:29.532Z,9.81
2022-12-29T08:34:57.990Z,9.80
2022-12-29T08:37:30.869Z,9.79
2022-12-29T08:39:59.877Z,9.78
2022-12-29T08:42:32.280Z,9.75
2022-12-29T08:45:00.667Z,9.78
2022-12-29T08:47:28.728Z,9.84
2022-12-29T08:49:56.895Z,9.91
2022-12-29T08:52:24.491Z,9.98
2022-12-29T08:54:52.437Z,10.04
2022-12-29T08:57:20.175Z,10.11
2022-12-29T08:59:50.430Z,10.15
2022-12-29T09:02:24.377Z,10.19
2022-12-29T09:04:52.828Z,10.24
2022-12-29T09:07:20.559Z,10.29
2022-12-29T09:09:48.090Z,10.32
2022-12-29T09:12:17.224Z,10.35
2022-12-29T09:14:47.973Z,10.38
2022-12-29T09:17:35.380Z,10.39
2022-12-29T09:20:04.360Z,10.37
2022-12-29T09:22:32.202Z,10.38
2022-12-29T09:25:00.402Z,10.38
2022-12-29T09:27:28.318Z,10.39
2022-12-29T09:29:57.177Z,10.38
2022-12-29T09:32:28.574Z,10.36
2022-12-29T09:34:59.857Z,10.34
2022-12-29T09:37:28.408Z,10.33
2022-12-29T09:39:56.496Z,10.32
2022-12-29T09:42:33.446Z,10.31
2022-12-29T09:45:45.401Z,10.29
2022-12-29T09:48:30.443Z,10.28
2022-12-29T09:51:03.643Z,10.27
2022-12-29T09:53:40.237Z,10.27
2022-12-29T09:56:20.362Z,10.28
2022-12-29T09:58:59.082Z,10.28
2022-12-29T10:01:42.049Z,10.28
2022-12-29T10:04:11.357Z,10.28
2022-12-29T10:07:27.443Z,10.26
2022-12-29T10:09:54.585Z,10.24
2022-12-29T10:12:41.068Z,10.26
2022-12-29T10:15:30.069Z,10.28
2022-12-29T10:18:12.959Z,10.29
2022-12-29T10:21:14.561Z,10.30
2022-12-29T10:23:53.903Z,10.30
2022-12-29T10:26:26.577Z,10.30
2022-12-29T10:29:05.022Z,10.31
2022-12-29T10:31:44.393Z,10.32
2022-12-29T10:34:23.069Z,10.33
2022-12-29T10:36:58.386Z,10.34
2022-12-29T10:39:38.377Z,10.36
2022-12-29T10:42:21.159Z,10.40
2022-12-29T10:44:48.807Z,10.43
2022-12-29T10:47:22.604Z,10.44
2022-12-29T10:49:51.594Z,10.44
2022-12-29T10:52:22.149Z,10.45
2022-12-29T10:54:58.747Z,10.46
2022-12-29T10:57:41.143Z,10.48
2022-12-29T11:00:26.866Z,10.46
2022-12-29T11:03:16.864Z,10.46
2022-12-29T11:06:06.120Z,10.47
2022-12-29T11:08:40.371Z,10.49
2022-12-29T11:11:11.117Z,10.52
2022-12-29T11:14:04.874Z,10.55
2022-12-29T11:16:35.748Z,10.56
2022-12-29T11:19:08.412Z,10.55
2022-12-29T11:21:43.535Z,10.56
2022-12-29T11:24:30.343Z,10.58
2022-12-29T11:27:18.089Z,10.61
2022-12-29T11:29:46.170Z,10.64
2022-12-29T11:32:28.745Z,10.65
2022-12-29T11:34:59.824Z,10.69
2022-12-29T11:37:43.849Z,10.70
2022-12-29T11:40:22.292Z,10.74
2022-12-29T11:42:56.716Z,10.77
2022-12-29T11:45:33.476Z,10.77
2022-12-29T11:48:18.431Z,10.80
2022-12-29T11:50:54.095Z,10.86
2022-12-29T11:53:35.378Z,10.89
2022-12-29T11:56:28.380Z,10.95
2022-12-29T11:58:56.144Z,11.05
2022-12-29T12:01:38.281Z,11.13
2022-12-29T12:04:14.171Z,11.18
2022-12-29T12:06:50.962Z,11.23
2022-12-29T12:09:32.313Z,11.27
2022-12-29T12:12:01.554Z,11.30
2022-12-29T12:14:40.015Z,11.32
2022-12-29T12:17:24.938Z,11.33
2022-12-29T12:20:01.432Z,11.34
2022-12-29T12:22:38.546Z,11.35
2022-12-29T12:25:22.278Z,11.36
2022-12-29T12:28:21.006Z,11.37
2022-12-29T12:30:54.865Z,11.39
2022-12-29T12:33:30.021Z,11.42
2022-12-29T12:36:25.558Z,11.45
2022-12-29T12:39:13.129Z,11.46
2022-12-29T12:42:06.028Z,11.44
2022-12-29T12:45:05.225Z,11.44
2022-12-29T12:48:22.029Z,11.43
2022-12-29T12:51:17.742Z,11.43
2022-12-29T12:53:51.365Z,11.41
2022-12-29T12:56:44.273Z,11.40
2022-12-29T12:59:27.991Z,11.40
2022-12-29T13:02:19.286Z,11.39
2022-12-29T13:05:03.243Z,11.39
2022-12-29T13:07:52.799Z,11.36
2022-12-29T13:10:23.679Z,11.36
2022-12-29T13:13:24.886Z,11.35
2022-12-29T13:16:26.824Z,11.33
2022-12-29T13:19:11.059Z,11.34
2022-12-29T13:22:06.529Z,11.33
2022-12-29T13:25:14.974Z,11.33
2022-12-29T13:28:16.464Z,11.30
2022-12-29T13:31:03.512Z,11.30
2022-12-29T13:33:57.536Z,11.33
2022-12-29T13:36:34.986Z,11.38
2022-12-29T13:39:19.078Z,11.41
2022-12-29T13:42:05.544Z,11.40
2022-12-29T13:44:39.460Z,11.38
2022-12-29T13:47:28.833Z,11.35
2022-12-29T13:50:10.842Z,11.28
2022-12-29T13:53:03.291Z,11.15
2022-12-29T13:55:45.271Z,11.09
2022-12-29T13:58:16.839Z,11.04
2022-12-29T14:00:47.797Z,11.02
2022-12-29T14:03:49.122Z,11.03
2022-12-29T14:06:19.943Z,11.07
2022-12-29T14:08:49.375Z,11.10
2022-12-29T14:11:21.020Z,11.11
2022-12-29T14:13:53.412Z,11.12
2022-12-29T14:16:36.861Z,11.12
2022-12-29T14:19:19.206Z,11.12
2022-12-29T14:22:06.864Z,11.10
2022-12-29T14:24:41.423Z,11.08
2022-12-29T14:27:12.367Z,11.06
2022-12-29T14:29:47.337Z,11.05
2022-12-29T14:32:27.298Z,11.04
2022-12-29T14:34:56.683Z,11.01
2022-12-29T14:37:30.600Z,11.00
2022-12-29T14:40:06.645Z,11.03
2022-12-29T14:42:35.279Z,11.05
2022-12-29T14:45:11.756Z,11.08
2022-12-29T14:47:42.785Z,11.11
2022-12-29T14:50:34.559Z,11.11
2022-12-29T14:53:05.977Z,11.09
2022-12-29T14:55:48.992Z,11.11
2022-12-29T14:58:23.172Z,11.09
2022-12-29T15:00:51.855Z,11.06
2022-12-29T15:03:44.751Z,11.01
2022-12-29T15:06:17.919Z,10.94
2022-12-29T15:08:58.158Z,10.90
2022-12-29T15:11:53.611Z,10.86
2022-12-29T15:14:49.815Z,10.81
2022-12-29T15:17:27.731Z,10.79
2022-12-29T15:19:57.562Z,10.78
2022-12-29T15:22:26.636Z,10.77
2022-12-29T15:24:56.839Z,10.75
2022-12-29T15:27:27.815Z,10.73
2022-12-29T15:30:03.200Z,10.71
2022-12-29T15:32:43.252Z,10.70
2022-12-29T15:35:37.968Z,10.69
2022-12-29T15:38:17.969Z,10.69
2022-12-29T15:40:47.307Z,10.69
2022-12-29T15:43:30.162Z,10.68
2022-12-29T15:45:58.121Z,10.65
2022-12-29T15:48:26.767Z,10.64
2022-12-29T15:50:54.977Z,10.61
2022-12-29T15:53:29.375Z,10.59
2022-12-29T15:56:06.856Z,10.57
2022-12-29T15:58:48.662Z,10.55
2022-12-29T16:01:25.883Z,10.55
2022-12-29T16:03:55.207Z,10.56
2022-12-29T16:06:55.223Z,10.59
2022-12-29T16:09:43.672Z,10.64
2022-12-29T16:12:32.871Z,10.65
2022-12-29T16:15:05.843Z,10.66
2022-12-29T16:17:48.559Z,10.68
2022-12-29T16:20:35.907Z,10.69
2022-12-29T16:23:05.288Z,10.69
2022-12-29T16:25:36.750Z,10.68
2022-12-29T16:28:37.596Z,10.68
2022-12-29T16:31:19.572Z,10.65
2022-12-29T16:33:58.242Z,10.62
2022-12-29T16:36:29.771Z,10.57
2022-12-29T16:39:16.559Z,10.51
2022-12-29T16:41:44.227Z,10.45
2022-12-29T16:44:14.678Z,10.44
2022-12-29T16:46:59.097Z,10.42
2022-12-29T16:49:28.219Z,10.38
2022-12-29T16:51:56.976Z,10.36
2022-12-29T16:54:31.291Z,10.35
2022-12-29T16:56:59.540Z,10.30
2022-12-29T16:59:32.470Z,10.29
2022-12-29T17:02:06.380Z,10.28
2022-12-29T17:04:34.549Z,10.25
2022-12-29T17:07:02.721Z,10.21
2022-12-29T17:09:32.659Z,10.19
2022-12-29T17:12:10.696Z,10.20
2022-12-29T17:14:42.453Z,10.21
2022-12-29T17:17:18.311Z,10.22
2022-12-29T17:19:50.204Z,10.23
2022-12-29T17:22:21.667Z,10.26
2022-12-29T17:24:50.424Z,10.29
2022-12-29T17:27:24.781Z,10.31
2022-12-29T17:29:55.872Z,10.32
2022-12-29T17:32:23.502Z,10.30
2022-12-29T17:34:51.413Z,10.29
2022-12-29T17:37:31.183Z,10.25
2022-12-29T17:39:59.071Z,10.20
2022-12-29T17:42:27.311Z,10.15
2022-12-29T17:44:55.708Z,10.12
2022-12-29T17:47:23.283Z,10.07
2022-12-29T17:49:50.994Z,10.07
2022-12-29T17:52:20.713Z,10.10
2022-12-29T17:54:53.389Z,10.10
2022-12-29T17:57:21.782Z,10.08
2022-12-29T17:59:49.481Z,10.08
2022-12-29T18:02:31.710Z,10.09
2022-12-29T18:05:00.387Z,10.09
2022-12-29T18:07:35.702Z,10.09
2022-12-29T18:10:06.568Z,10.07
2022-12-29T18:12:40.162Z,10.03
2022-12-29T18:15:18.840Z,10.00
2022-12-29T18:17:47.103Z,9.97
2022-12-29T18:20:15.163Z,9.95
2022-12-29T18:22:42.939Z,9.94
2022-12-29T18:25:19.930Z,9.92
2022-12-29T18:27:47.623Z,9.93
2022-12-29T18:30:15.670Z,9.97
2022-12-29T18:32:44.556Z,10.01
2022-12-29T18:35:40.492Z,10.03
2022-12-29T18:38:08.603Z,10.02
2022-12-29T18:40:37.354Z,10.03
2022-12-29T18:43:05.274Z,10.04
2022-12-29T18:45:34.209Z,10.05
2022-12-29T18:48:01.905Z,10.04
2022-12-29T18:50:29.651Z,10.03
2022-12-29T18:53:03.570Z,10.00
2022-12-29T18:55:32.776Z,9.98
2022-12-29T18:58:00.499Z,9.96
2022-12-29T19:00:28.115Z,9.94
2022-12-29T19:02:56.183Z,9.93
2022-12-29T19:05:27.693Z,9.97
2022-12-29T19:07:55.379Z,9.98
2022-12-29T19:10:24.977Z,9.97
2022-12-29T19:12:52.794Z,9.96
2022-12-29T19:15:29.697Z,9.96
2022-12-29T19:20:49.550Z,9.98
2022-12-29T19:23:19.889Z,9.97
2022-12-29T19:25:48.480Z,9.96
2022-12-29T19:28:27.730Z,9.96
2022-12-29T19:31:00.035Z,9.96
2022-12-29T19:33:28.521Z,9.94
2022-12-29T19:36:02.069Z,9.92
2022-12-29T19:38:29.767Z,9.90
2022-12-29T19:40:57.605Z,9.94
2022-12-29T19:43:25.158Z,9.95
2022-12-29T19:45:53.856Z,9.95
2022-12-29T19:48:21.979Z,9.94
2022-12-29T19:50:50.909Z,9.93
2022-12-29T19:53:19.149Z,9.93
2022-12-29T19:55:47.744Z,9.92
2022-12-29T19:58:16.301Z,9.90
2022-12-29T20:00:44.552Z,9.89
2022-12-29T20:03:14.140Z,9.87
2022-12-29T20:05:48.939Z,9.85
2022-12-29T20:08:16.897Z,9.81
2022-12-29T20:10:44.400Z,9.79
2022-12-29T20:13:12.000Z,9.76
2022-12-29T20:15:43.416Z,9.74
2022-12-29T20:18:13.752Z,9.80
2022-12-29T20:20:43.226Z,9.86
2022-12-29T20:23:10.938Z,9.88
2022-12-29T20:25:47.542Z,9.87
2022-12-29T20:28:16.169Z,9.88
2022-12-29T20:30:44.655Z,9.89
2022-12-29T20:33:12.561Z,9.88
2022-12-29T20:35:40.266Z,9.85
2022-12-29T20:38:08.156Z,9.82
2022-12-29T20:40:42.316Z,9.77
2022-12-29T20:43:15.339Z,9.73
2022-12-29T20:45:43.635Z,9.68
2022-12-29T20:48:11.305Z,9.66
2022-12-29T20:50:39.771Z,9.67
2022-12-29T20:53:07.922Z,9.68
2022-12-29T20:55:35.821Z,9.67
2022-12-29T21:00:54.239Z,9.65
2022-12-29T21:03:24.602Z,9.59
2022-12-29T21:05:53.787Z,9.54
2022-12-29T21:08:22.623Z,9.50
2022-12-29T21:10:51.572Z,9.48
2022-12-29T21:13:19.903Z,9.43
2022-12-29T21:15:49.315Z,9.36
2022-12-29T21:18:17.159Z,9.30
2022-12-29T21:20:45.505Z,9.26
2022-12-29T21:23:14.024Z,9.24
2022-12-29T21:25:43.870Z,9.27
2022-12-29T21:28:14.379Z,9.30
2022-12-29T21:30:42.349Z,9.32
2022-12-29T21:33:10.087Z,9.31
2022-12-29T21:35:39.325Z,9.29
2022-12-29T21:38:08.960Z,9.30
2022-12-29T21:40:39.374Z,9.30
2022-12-29T21:43:07.749Z,9.29
2022-12-29T21:45:35.399Z,9.27
2022-12-29T21:48:21.676Z,9.25
2022-12-29T21:51:26.930Z,9.22
2022-12-29T21:54:21.352Z,9.20
2022-12-29T21:56:49.397Z,9.21
2022-12-29T21:59:36.255Z,9.20
2022-12-29T22:02:25.181Z,9.19
2022-12-29T22:05:12.034Z,9.22
2022-12-29T22:07:58.369Z,9.23
2022-12-29T22:10:44.768Z,9.24
2022-12-29T22:13:12.361Z,9.25
2022-12-29T22:15:41.312Z,9.25
2022-12-29T22:18:10.005Z,9.25
2022-12-29T22:20:37.996Z,9.23
2022-12-29T22:23:06.152Z,9.23
2022-12-29T22:25:34.404Z,9.25
2022-12-29T22:28:02.161Z,9.26
2022-12-29T22:30:29.934Z,9.26
2022-12-29T22:32:59.020Z,9.28
2022-12-29T22:35:27.330Z,9.28
2022-12-29T22:37:55.494Z,9.26
2022-12-29T22:40:24.449Z,9.23
2022-12-29T22:42:52.102Z,9.22
2022-12-29T22:45:19.707Z,9.19
2022-12-29T22:47:47.361Z,9.20
2022-12-29T22:50:14.972Z,9.17
2022-12-29T22:52:47.524Z,9.15
2022-12-29T22:55:16.054Z,9.18
2022-12-29T22:57:44.446Z,9.23
2022-12-29T23:00:13.053Z,9.28
2022-12-29T23:02:42.070Z,9.30
2022-12-29T23:05:11.522Z,9.32
2022-12-29T23:07:39.498Z,9.33
2022-12-29T23:10:08.023Z,9.32
2022-12-29T23:12:36.322Z,9.31
2022-12-29T23:15:04.480Z,9.26
2022-12-29T23:17:32.255Z,9.24
2022-12-29T23:19:59.926Z,9.21
2022-12-29T23:22:27.739Z,9.24
2022-12-29T23:24:59.593Z,9.30
2022-12-29T23:27:28.387Z,9.34
2022-12-29T23:29:56.399Z,9.37
2022-12-29T23:32:24.089Z,9.35
2022-12-29T23:34:51.865Z,9.32
2022-12-29T23:37:21.013Z,9.27
2022-12-29T23:39:48.724Z,9.20
2022-12-29T23:42:16.712Z,9.12
2022-12-29T23:44:45.283Z,9.08
2022-12-29T23:47:13.680Z,9.08
2022-12-29T23:49:41.517Z,9.08
2022-12-29T23:52:09.551Z,9.12
2022-12-29T23:54:37.244Z,9.15
2022-12-29T23:57:05.235Z,9.17
2022-12-29T23:59:32.912Z,9.17
